Time;durP1;ratioP1;P1;durP2;ratioP2;P2;SDS_P1;SDS_P2;PMS_P1;PMS_P2;Temp;Humidity;BMP_temperature;BMP_pressure;BME280_temperature;BME280_humidity;BME280_pressure;Samples;Min_cycle;Max_cycle;Signal;HPM_P1;HPM_P2
2021/06/27 00:02:17;;;;;;;3.92;2.97;;;19.60;72.00;;;;;;5054083;28;20108;-71
2021/06/27 00:04:43;;;;;;;3.58;2.67;;;19.60;72.00;;;;;;5055240;28;20055;-71
2021/06/27 00:07:08;;;;;;;3.45;2.60;;;19.60;72.00;;;;;;5054910;28;20436;-71
2021/06/27 00:09:34;;;;;;;3.55;2.45;;;19.60;72.00;;;;;;5055123;28;20032;-71
2021/06/27 00:12:01;;;;;;;3.55;2.55;;;19.60;72.00;;;;;;5054843;28;20049;-71
2021/06/27 00:14:28;;;;;;;3.53;2.70;;;19.60;72.00;;;;;;5053853;28;20477;-71
2021/06/27 00:16:54;;;;;;;3.40;2.35;;;19.50;72.10;;;;;;5055235;28;20021;-71
2021/06/27 00:19:21;;;;;;;3.63;2.53;;;19.50;72.10;;;;;;5054859;28;20021;-70
2021/06/27 00:21:47;;;;;;;3.45;2.42;;;19.50;72.60;;;;;;5054542;28;20024;-71
2021/06/27 00:24:13;;;;;;;4.13;2.83;;;19.50;72.60;;;;;;5070330;28;20364;-70
2021/06/27 00:26:39;;;;;;;3.38;2.60;;;19.40;72.80;;;;;;5054889;28;20112;-71
2021/06/27 00:29:04;;;;;;;3.97;2.70;;;19.50;73.00;;;;;;5054869;28;20025;-70
2021/06/27 00:31:30;;;;;;;3.05;2.45;;;19.40;72.90;;;;;;5054919;28;20029;-70
2021/06/27 00:33:55;;;;;;;3.33;2.47;;;19.40;72.90;;;;;;5054743;28;20469;-71
2021/06/27 00:36:21;;;;;;;4.30;2.85;;;19.40;72.90;;;;;;5054370;28;20017;-71
2021/06/27 00:38:47;;;;;;;3.90;3.05;;;19.40;72.90;;;;;;5069890;28;20033;-70
2021/06/27 00:41:13;;;;;;;3.65;2.80;;;19.40;72.90;;;;;;5054514;28;20060;-71
2021/06/27 00:43:38;;;;;;;3.72;2.55;;;19.40;73.00;;;;;;5054613;28;20500;-71
2021/06/27 00:46:04;;;;;;;4.68;2.97;;;19.30;72.90;;;;;;5053180;28;20392;-71
2021/06/27 00:48:29;;;;;;;3.08;2.55;;;19.40;73.00;;;;;;5054514;28;20489;-71
2021/06/27 00:50:57;;;;;;;4.57;3.35;;;19.30;73.10;;;;;;5053958;28;20017;-71
2021/06/27 00:53:22;;;;;;;3.58;2.55;;;19.30;73.10;;;;;;5054413;28;20473;-70
2021/06/27 00:55:54;;;;;;;3.38;2.67;;;19.30;73.20;;;;;;5054493;28;20036;-71
2021/06/27 00:58:34;;;;;;;3.15;2.35;;;19.30;73.30;;;;;;5054535;28;20017;-70
2021/06/27 01:01:02;;;;;;;4.38;2.65;;;19.40;73.20;;;;;;5054154;28;20065;-70
2021/06/27 01:03:28;;;;;;;3.42;2.42;;;19.30;73.20;;;;;;5053838;28;20021;-71
2021/06/27 01:05:54;;;;;;;3.72;2.58;;;19.30;73.30;;;;;;5054045;28;20032;-70
2021/06/27 01:08:20;;;;;;;3.78;2.78;;;19.30;73.30;;;;;;5053544;28;20056;-70
2021/06/27 01:10:47;;;;;;;2.72;2.20;;;19.30;73.30;;;;;;5053939;28;20076;-70
2021/06/27 01:13:14;;;;;;;3.45;2.83;;;19.30;73.30;;;;;;5053925;28;20017;-71
2021/06/27 01:15:40;;;;;;;3.50;2.53;;;19.40;73.40;;;;;;5054104;28;20071;-71
2021/06/27 01:18:05;;;;;;;3.50;2.20;;;19.40;73.40;;;;;;5053525;28;20021;-71
2021/06/27 01:20:34;;;;;;;3.78;2.75;;;19.40;73.40;;;;;;5053872;28;20032;-71
2021/06/27 01:23:02;;;;;;;3.67;2.70;;;19.40;73.40;;;;;;5053962;28;20100;-70
2021/06/27 01:25:30;;;;;;;3.67;2.95;;;19.40;73.40;;;;;;5053615;28;20020;-70
2021/06/27 01:27:57;;;;;;;3.50;2.65;;;19.40;73.40;;;;;;5053685;28;20028;-71
2021/06/27 01:30:24;;;;;;;4.20;3.22;;;19.30;73.40;;;;;;5053667;28;20025;-70
2021/06/27 01:32:53;;;;;;;3.55;2.70;;;19.30;73.60;;;;;;5053260;28;20058;-71
2021/06/27 01:35:21;;;;;;;3.67;2.60;;;19.30;73.80;;;;;;5053506;28;20033;-71
2021/06/27 01:37:51;;;;;;;3.30;2.93;;;19.20;73.90;;;;;;5053606;28;20078;-71
2021/06/27 01:40:19;;;;;;;4.38;3.20;;;19.20;74.00;;;;;;5053515;28;20043;-71
2021/06/27 01:42:46;;;;;;;4.68;3.40;;;19.10;74.20;;;;;;5053544;28;20056;-71
2021/06/27 01:45:13;;;;;;;3.90;2.80;;;19.10;74.30;;;;;;5052357;28;20036;-71
2021/06/27 01:47:39;;;;;;;4.22;2.90;;;19.00;74.40;;;;;;5053118;28;20029;-71
2021/06/27 01:50:07;;;;;;;4.97;3.45;;;19.00;75.20;;;;;;5053363;28;20079;-71
2021/06/27 01:52:32;;;;;;;3.95;3.00;;;19.00;74.50;;;;;;5053389;28;20028;-71
2021/06/27 01:54:58;;;;;;;4.93;3.63;;;19.00;74.60;;;;;;5053389;28;20025;-71
2021/06/27 01:57:23;;;;;;;4.18;3.05;;;19.00;75.00;;;;;;5053333;28;20028;-71
2021/06/27 01:59:49;;;;;;;3.90;2.95;;;18.90;74.60;;;;;;5053328;28;20040;-71
2021/06/27 02:02:19;;;;;;;3.53;2.72;;;18.90;74.70;;;;;;5051588;28;20013;-71
2021/06/27 02:04:46;;;;;;;3.83;2.83;;;18.90;74.80;;;;;;5053058;28;20017;-71
2021/06/27 02:07:12;;;;;;;4.15;2.83;;;18.90;74.80;;;;;;5053286;28;20096;-71
2021/06/27 02:09:37;;;;;;;4.70;3.10;;;18.90;74.90;;;;;;5053197;28;20424;-71
2021/06/27 02:12:03;;;;;;;4.35;2.97;;;18.80;74.90;;;;;;5053047;28;20049;-71
2021/06/27 02:14:29;;;;;;;4.78;3.55;;;18.80;74.90;;;;;;5053004;28;20032;-71
2021/06/27 02:16:55;;;;;;;4.80;3.30;;;18.80;75.00;;;;;;5052721;28;20019;-70
2021/06/27 02:19:20;;;;;;;5.25;3.17;;;18.80;75.10;;;;;;5052866;28;20087;-71
2021/06/27 02:21:46;;;;;;;4.55;3.40;;;18.80;75.20;;;;;;5053147;28;20021;-71
2021/06/27 02:24:11;;;;;;;4.55;3.53;;;18.80;75.20;;;;;;5053169;28;20508;-71
2021/06/27 02:26:37;;;;;;;5.35;4.20;;;18.70;75.20;;;;;;5052961;28;20063;-71
2021/06/27 02:29:05;;;;;;;5.10;3.38;;;18.70;75.30;;;;;;5052935;28;20060;-71
2021/06/27 02:31:31;;;;;;;3.67;3.00;;;18.70;75.40;;;;;;5052289;28;20477;-71
2021/06/27 02:33:58;;;;;;;3.30;2.67;;;18.70;75.50;;;;;;5052980;28;20108;-71
2021/06/27 02:36:25;;;;;;;3.88;2.78;;;18.70;75.50;;;;;;5052762;28;20053;-71
2021/06/27 02:38:51;;;;;;;4.65;2.63;;;18.70;75.50;;;;;;5052844;28;20025;-71
2021/06/27 02:41:18;;;;;;;3.60;2.72;;;18.70;75.50;;;;;;5052784;28;20041;-71
2021/06/27 02:43:44;;;;;;;4.13;2.95;;;18.70;75.50;;;;;;5052858;28;20022;-71
2021/06/27 02:46:10;;;;;;;5.15;3.60;;;18.60;75.50;;;;;;5052353;28;20083;-71
2021/06/27 02:48:36;;;;;;;4.68;3.42;;;18.60;75.60;;;;;;5052677;28;20029;-71
2021/06/27 02:51:02;;;;;;;4.35;2.90;;;18.60;75.70;;;;;;5052713;28;20032;-71
2021/06/27 02:53:27;;;;;;;4.25;3.05;;;18.60;75.70;;;;;;5052628;28;20025;-71
2021/06/27 02:56:08;;;;;;;4.28;3.38;;;18.60;75.80;;;;;;5052647;28;20474;-71
2021/06/27 02:58:41;;;;;;;3.67;3.15;;;18.60;75.90;;;;;;5052619;28;20414;-71
2021/06/27 03:01:08;;;;;;;4.55;3.40;;;18.60;76.00;;;;;;5052074;28;20390;-71
2021/06/27 03:03:34;;;;;;;4.75;3.80;;;18.50;76.00;;;;;;5068002;28;20046;-72
2021/06/27 03:06:00;;;;;;;5.22;3.65;;;18.50;76.10;;;;;;5052689;28;20104;-71
2021/06/27 03:08:26;;;;;;;4.45;3.55;;;18.40;76.30;;;;;;5052656;28;20124;-71
2021/06/27 03:10:51;;;;;;;4.95;4.00;;;18.40;76.50;;;;;;5052248;28;20478;-70
2021/06/27 03:13:18;;;;;;;4.75;3.42;;;18.40;76.50;;;;;;5052504;28;20227;-71
2021/06/27 03:15:44;;;;;;;4.75;3.70;;;18.40;76.50;;;;;;5051976;28;20448;-71
2021/06/27 03:18:12;;;;;;;4.43;3.53;;;18.40;76.50;;;;;;5052478;28;20029;-71
2021/06/27 03:20:37;;;;;;;4.75;3.20;;;18.30;76.50;;;;;;5052462;28;20075;-71
2021/06/27 03:23:03;;;;;;;4.18;3.25;;;18.30;76.50;;;;;;5052255;28;20390;-71
2021/06/27 03:25:30;;;;;;;3.95;3.17;;;18.30;76.50;;;;;;5052364;28;20064;-71
2021/06/27 03:27:56;;;;;;;4.28;3.00;;;18.30;76.50;;;;;;5052174;28;20020;-71
2021/06/27 03:30:22;;;;;;;4.40;3.47;;;18.30;76.60;;;;;;5053435;28;20021;-71
2021/06/27 03:32:48;;;;;;;5.10;3.40;;;18.30;76.60;;;;;;5055827;28;20028;-71
2021/06/27 03:35:13;;;;;;;4.80;3.72;;;18.30;76.60;;;;;;5056164;28;20385;-71
2021/06/27 03:37:49;;;;;;;4.20;2.90;;;18.30;76.70;;;;;;5055899;28;20104;-71
2021/06/27 03:40:15;;;;;;;3.55;2.63;;;18.30;76.60;;;;;;5055664;28;20029;-71
2021/06/27 03:42:41;;;;;;;4.32;2.95;;;18.30;76.70;;;;;;5055657;28;20044;-71
2021/06/27 03:45:07;;;;;;;4.70;2.70;;;18.30;76.70;;;;;;5055307;28;20477;-71
2021/06/27 03:47:32;;;;;;;4.70;3.67;;;18.30;76.60;;;;;;5055695;28;20021;-71
2021/06/27 03:49:58;;;;;;;4.93;3.70;;;18.30;76.70;;;;;;5055590;28;20032;-71
2021/06/27 03:52:23;;;;;;;4.60;3.20;;;18.30;76.70;;;;;;5055597;28;20492;-71
2021/06/27 03:54:49;;;;;;;4.47;3.10;;;18.30;76.80;;;;;;5055604;28;20420;-71
2021/06/27 03:57:15;;;;;;;4.63;3.30;;;18.30;77.50;;;;;;5055434;28;20488;-71
2021/06/27 03:59:40;;;;;;;4.07;3.13;;;18.30;76.80;;;;;;5053750;28;20025;-71
2021/06/27 04:02:06;;;;;;;4.85;3.42;;;18.40;76.80;;;;;;5055296;28;20545;-71
2021/06/27 04:04:31;;;;;;;4.45;3.15;;;18.40;76.90;;;;;;5055402;28;20086;-71
2021/06/27 04:06:57;;;;;;;4.45;3.10;;;18.40;76.80;;;;;;5055348;28;20362;-71
2021/06/27 04:09:22;;;;;;;4.88;2.90;;;18.50;76.80;;;;;;5055136;28;20501;-71
2021/06/27 04:11:48;;;;;;;4.38;3.03;;;18.50;76.80;;;;;;5054919;28;20045;-71
2021/06/27 04:14:13;;;;;;;4.43;3.10;;;18.50;76.70;;;;;;5055211;28;20108;-71
2021/06/27 04:16:39;;;;;;;3.47;2.78;;;18.50;76.70;;;;;;5055297;28;20538;-71
2021/06/27 04:19:04;;;;;;;3.80;2.72;;;18.50;76.70;;;;;;5054992;28;20036;-71
2021/06/27 04:21:30;;;;;;;4.15;2.95;;;18.50;76.80;;;;;;5054986;28;20171;-71
2021/06/27 04:23:56;;;;;;;4.43;2.90;;;18.60;76.80;;;;;;5054998;28;20024;-71
2021/06/27 04:26:21;;;;;;;4.38;2.85;;;18.60;76.80;;;;;;5054538;28;20029;-71
2021/06/27 04:28:47;;;;;;;3.25;2.58;;;18.60;76.80;;;;;;5054870;28;20036;-71
2021/06/27 04:31:13;;;;;;;4.13;3.13;;;18.70;76.80;;;;;;5054895;28;20072;-71
2021/06/27 04:33:38;;;;;;;3.60;2.80;;;18.80;76.70;;;;;;5055133;28;20029;-71
2021/06/27 04:36:04;;;;;;;2.88;2.50;;;18.80;76.50;;;;;;5054858;28;20024;-71
2021/06/27 04:38:30;;;;;;;3.92;3.08;;;18.90;76.50;;;;;;5054887;28;20143;-71
2021/06/27 04:40:57;;;;;;;3.95;2.92;;;19.00;76.40;;;;;;5054116;28;20052;-71
2021/06/27 04:43:22;;;;;;;5.18;3.50;;;19.10;76.30;;;;;;5054505;28;20063;-71
2021/06/27 04:45:49;;;;;;;2.88;2.38;;;19.10;76.30;;;;;;5054602;28;20025;-71
2021/06/27 04:48:15;;;;;;;4.00;2.78;;;19.20;76.30;;;;;;5054536;28;20028;-71
2021/06/27 04:50:40;;;;;;;3.33;2.50;;;19.30;76.30;;;;;;5054527;28;20025;-71
2021/06/27 04:53:12;;;;;;;3.30;2.50;;;19.40;76.20;;;;;;5054219;28;20025;-71
2021/06/27 04:55:38;;;;;;;3.53;2.78;;;19.40;76.00;;;;;;5053869;28;20142;-71
2021/06/27 04:58:04;;;;;;;2.40;2.10;;;19.50;75.90;;;;;;5053028;28;20024;-71
2021/06/27 05:00:30;;;;;;;3.65;2.53;;;19.60;75.80;;;;;;5054221;28;20045;-71
2021/06/27 05:02:55;;;;;;;2.65;2.05;;;19.70;75.80;;;;;;5054178;28;20025;-71
2021/06/27 05:05:21;;;;;;;2.10;1.90;;;19.80;75.70;;;;;;5054110;28;20508;-71
2021/06/27 05:07:46;;;;;;;3.47;2.28;;;19.80;75.70;;;;;;5054234;28;20029;-71
2021/06/27 05:10:12;;;;;;;3.05;2.50;;;19.90;76.30;;;;;;5053705;28;20106;-71
2021/06/27 05:12:38;;;;;;;4.07;2.88;;;19.90;75.60;;;;;;5053913;28;20483;-71
2021/06/27 05:15:04;;;;;;;3.35;2.40;;;19.90;75.60;;;;;;5053987;28;20048;-71
2021/06/27 05:17:29;;;;;;;3.08;2.40;;;20.00;75.70;;;;;;5052766;28;20032;-71
2021/06/27 05:19:55;;;;;;;4.00;2.55;;;20.00;75.70;;;;;;5052607;28;20406;-71
2021/06/27 05:22:20;;;;;;;3.55;2.58;;;20.00;75.80;;;;;;5053846;28;20052;-71
2021/06/27 05:24:46;;;;;;;3.30;2.40;;;20.00;75.70;;;;;;5053616;28;20025;-71
2021/06/27 05:27:11;;;;;;;3.20;2.20;;;20.10;75.70;;;;;;5053791;28;20029;-72
2021/06/27 05:29:37;;;;;;;3.17;2.75;;;20.10;75.60;;;;;;5053841;28;20021;-71
2021/06/27 05:32:03;;;;;;;2.60;2.17;;;20.10;75.60;;;;;;5053663;28;20524;-71
2021/06/27 05:34:30;;;;;;;3.25;2.13;;;20.20;75.60;;;;;;5053515;28;20496;-71
2021/06/27 05:36:56;;;;;;;3.10;2.47;;;20.20;75.40;;;;;;5053577;28;20025;-71
2021/06/27 05:39:23;;;;;;;2.25;2.03;;;20.30;75.50;;;;;;5053100;28;20477;-71
2021/06/27 05:41:49;;;;;;;2.13;1.92;;;20.30;75.40;;;;;;5053585;28;20036;-71
2021/06/27 05:44:14;;;;;;;2.92;2.60;;;20.30;75.40;;;;;;5053424;28;20025;-71
2021/06/27 05:46:40;;;;;;;2.45;2.17;;;20.30;75.40;;;;;;5052164;28;20103;-71
2021/06/27 05:49:06;;;;;;;2.88;2.28;;;20.40;75.30;;;;;;5053565;28;20013;-71
2021/06/27 05:51:33;;;;;;;2.47;2.03;;;20.40;75.30;;;;;;5053454;28;20044;-71
2021/06/27 05:53:58;;;;;;;3.50;2.55;;;20.40;75.30;;;;;;5052604;28;20021;-71
2021/06/27 05:56:24;;;;;;;2.88;2.03;;;20.40;75.20;;;;;;5053176;28;20052;-71
2021/06/27 05:58:49;;;;;;;2.80;2.17;;;20.40;75.20;;;;;;5053282;28;20019;-74
2021/06/27 06:01:17;;;;;;;3.00;1.92;;;20.50;75.20;;;;;;5053222;28;20315;-70
2021/06/27 06:03:43;;;;;;;2.75;2.08;;;20.50;75.20;;;;;;5053309;28;20013;-71
2021/06/27 06:06:10;;;;;;;2.67;2.22;;;20.60;75.10;;;;;;5053141;28;20100;-71
2021/06/27 06:08:40;;;;;;;2.38;2.15;;;20.70;74.90;;;;;;5052496;28;20017;-71
2021/06/27 06:11:06;;;;;;;2.75;2.10;;;20.70;74.90;;;;;;5052835;28;20044;-71
2021/06/27 06:13:31;;;;;;;2.83;2.05;;;20.70;74.90;;;;;;5052890;28;20041;-71
2021/06/27 06:15:57;;;;;;;3.13;2.60;;;20.80;74.90;;;;;;5052952;28;20033;-71
2021/06/27 06:18:22;;;;;;;2.22;1.80;;;20.80;74.80;;;;;;5053030;28;20025;-71
2021/06/27 06:20:48;;;;;;;2.55;1.90;;;20.90;74.90;;;;;;5052794;28;20060;-71
2021/06/27 06:23:13;;;;;;;3.35;2.08;;;20.90;74.80;;;;;;5052415;28;20478;-72
2021/06/27 06:25:39;;;;;;;2.08;1.70;;;21.00;74.80;;;;;;5051524;28;20029;-71
2021/06/27 06:28:04;;;;;;;2.47;1.98;;;21.00;74.70;;;;;;5052952;28;20017;-71
2021/06/27 06:30:30;;;;;;;3.13;2.25;;;21.00;74.70;;;;;;5052947;28;20075;-71
2021/06/27 06:32:55;;;;;;;2.72;2.13;;;21.00;74.70;;;;;;5052971;28;20100;-71
2021/06/27 06:35:21;;;;;;;3.65;2.25;;;21.00;74.80;;;;;;5052782;28;20108;-71
2021/06/27 06:37:47;;;;;;;3.67;2.58;;;21.00;74.80;;;;;;5052320;28;20372;-71
2021/06/27 06:40:12;;;;;;;3.13;2.40;;;20.90;74.90;;;;;;5052931;28;20033;-71
2021/06/27 06:42:38;;;;;;;2.58;2.10;;;20.90;74.90;;;;;;5052687;28;20029;-71
2021/06/27 06:45:05;;;;;;;3.53;2.58;;;20.90;75.00;;;;;;5052912;28;20021;-71
2021/06/27 06:47:30;;;;;;;3.38;2.60;;;20.90;74.90;;;;;;5052560;28;20048;-71
2021/06/27 06:49:56;;;;;;;3.83;2.63;;;21.00;74.90;;;;;;5052763;28;20378;-70
2021/06/27 06:52:22;;;;;;;5.63;3.72;;;21.00;74.70;;;;;;5052444;28;20021;-70
2021/06/27 06:54:48;;;;;;;3.42;2.40;;;21.20;74.50;;;;;;5051812;28;20715;-69
2021/06/27 06:57:14;;;;;;;4.10;2.33;;;21.30;74.50;;;;;;5054447;28;20025;-70
2021/06/27 06:59:39;;;;;;;3.05;2.65;;;21.40;74.30;;;;;;5065381;28;20033;-72
2021/06/27 07:02:05;;;;;;;3.22;2.53;;;21.50;74.20;;;;;;5061401;28;20060;-71
2021/06/27 07:04:32;;;;;;;3.30;2.47;;;21.50;74.10;;;;;;5056916;28;20066;-71
2021/06/27 07:06:57;;;;;;;2.65;1.92;;;21.70;73.90;;;;;;5050738;28;20489;-70
2021/06/27 07:09:23;;;;;;;4.65;3.15;;;21.80;73.80;;;;;;5066295;28;20032;-71
2021/06/27 07:11:48;;;;;;;3.45;2.40;;;21.90;73.60;;;;;;5066903;28;20482;-71
2021/06/27 07:14:14;;;;;;;3.47;2.75;;;22.00;73.50;;;;;;5076379;28;20530;-70
2021/06/27 07:16:39;;;;;;;2.35;2.10;;;22.10;73.30;;;;;;5062221;28;20029;-70
2021/06/27 07:19:05;;;;;;;2.72;2.30;;;22.20;73.20;;;;;;5064472;28;20488;-70
2021/06/27 07:21:30;;;;;;;3.03;2.47;;;22.30;73.20;;;;;;5066310;28;20037;-70
2021/06/27 07:23:56;;;;;;;2.40;1.98;;;22.30;73.20;;;;;;5076080;28;20021;-71
2021/06/27 07:26:23;;;;;;;3.30;2.60;;;22.40;73.20;;;;;;5061867;28;20025;-70
2021/06/27 07:28:48;;;;;;;3.20;2.00;;;22.40;73.20;;;;;;5071501;28;20436;-70
2021/06/27 07:31:14;;;;;;;2.97;2.10;;;22.50;73.20;;;;;;5049712;28;20017;-70
2021/06/27 07:33:40;;;;;;;3.08;2.30;;;22.50;73.10;;;;;;5055795;28;20041;-70
2021/06/27 07:36:06;;;;;;;2.85;2.33;;;22.60;73.10;;;;;;5055482;28;20028;-70
2021/06/27 07:38:32;;;;;;;2.58;2.28;;;22.60;73.10;;;;;;5059620;28;20052;-70
2021/06/27 07:40:58;;;;;;;3.65;2.75;;;22.60;73.10;;;;;;5055726;28;20462;-70
2021/06/27 07:43:24;;;;;;;4.30;2.88;;;22.70;73.00;;;;;;5037618;28;20017;-70
2021/06/27 07:45:49;;;;;;;4.28;2.97;;;22.80;72.90;;;;;;5060098;28;20043;-71
2021/06/27 07:48:15;;;;;;;3.47;2.33;;;22.80;72.90;;;;;;5073948;28;20028;-70
2021/06/27 07:50:41;;;;;;;3.70;2.80;;;22.80;72.80;;;;;;5059721;28;20069;-70
2021/06/27 07:53:06;;;;;;;3.45;2.47;;;22.90;72.90;;;;;;5068650;28;20466;-71
2021/06/27 07:55:33;;;;;;;3.60;2.78;;;22.90;72.90;;;;;;5054358;28;20029;-71
2021/06/27 07:57:59;;;;;;;2.15;1.95;;;23.00;72.80;;;;;;5055854;28;20033;-71
2021/06/27 08:00:25;;;;;;;2.92;2.22;;;23.10;72.70;;;;;;5056505;28;20371;-70
2021/06/27 08:02:50;;;;;;;2.58;1.85;;;23.20;72.60;;;;;;5056930;28;20427;-71
2021/06/27 08:05:16;;;;;;;2.25;2.05;;;23.20;72.60;;;;;;5075190;28;20031;-70
2021/06/27 08:07:41;;;;;;;2.55;2.05;;;23.20;72.50;;;;;;5059936;28;20381;-71
2021/06/27 08:10:09;;;;;;;2.83;2.53;;;23.40;72.50;;;;;;5069728;28;20024;-71
2021/06/27 08:12:34;;;;;;;2.05;1.80;;;23.30;72.40;;;;;;5075018;28;20068;-70
2021/06/27 08:15:00;;;;;;;2.97;2.67;;;23.40;72.40;;;;;;5062582;28;20072;-71
2021/06/27 08:17:25;;;;;;;2.92;2.13;;;23.50;72.30;;;;;;5054793;28;20021;-71
2021/06/27 08:19:51;;;;;;;3.33;2.28;;;23.50;72.30;;;;;;5064551;28;20024;-70
2021/06/27 08:22:17;;;;;;;4.93;2.25;;;23.50;72.30;;;;;;5063402;28;20467;-71
2021/06/27 08:24:43;;;;;;;2.00;1.70;;;23.60;72.30;;;;;;5067259;28;20537;-71
2021/06/27 08:27:09;;;;;;;2.10;1.80;;;23.70;72.30;;;;;;5070608;28;20115;-70
2021/06/27 08:29:36;;;;;;;3.28;2.20;;;23.80;72.20;;;;;;5074896;28;20424;-71
2021/06/27 08:32:02;;;;;;;2.38;1.70;;;23.80;72.20;;;;;;5064212;28;20071;-70
2021/06/27 08:34:29;;;;;;;1.70;1.60;;;23.90;72.00;;;;;;5063768;28;20130;-71
2021/06/27 08:36:54;;;;;;;3.13;2.28;;;24.00;71.90;;;;;;5074631;28;20025;-71
2021/06/27 08:39:20;;;;;;;3.53;2.42;;;24.00;71.90;;;;;;5074639;28;20028;-71
2021/06/27 08:41:45;;;;;;;2.30;1.95;;;24.10;71.90;;;;;;5056537;28;20047;-71
2021/06/27 08:44:14;;;;;;;2.72;2.03;;;24.10;71.70;;;;;;5049098;28;20028;-71
2021/06/27 08:46:43;;;;;;;2.30;2.08;;;24.20;71.70;;;;;;5054124;28;20033;-71
2021/06/27 08:49:11;;;;;;;2.72;2.15;;;24.20;71.80;;;;;;5053974;28;20037;-70
2021/06/27 08:51:39;;;;;;;2.75;2.05;;;24.10;71.70;;;;;;5054536;28;20029;-71
2021/06/27 08:54:08;;;;;;;2.50;1.95;;;24.20;71.80;;;;;;5054468;28;20094;-71
2021/06/27 08:56:35;;;;;;;2.13;1.80;;;24.20;71.90;;;;;;5054995;28;20052;-71
2021/06/27 08:59:01;;;;;;;3.08;2.30;;;24.20;71.80;;;;;;5054046;28;20100;-71
2021/06/27 09:01:27;;;;;;;1.30;1.20;;;24.20;71.70;;;;;;5036159;28;20430;-71
2021/06/27 09:03:55;;;;;;;1.83;1.55;;;24.30;71.70;;;;;;5060789;28;20024;-71
2021/06/27 09:06:39;;;;;;;1.70;1.60;;;24.30;71.70;;;;;;5074020;28;20020;-71
2021/06/27 09:09:12;;;;;;;1.55;1.40;;;24.30;71.70;;;;;;5073845;28;20267;-71
2021/06/27 09:11:57;;;;;;;1.55;1.45;;;24.30;71.70;;;;;;5073846;28;20428;-70
2021/06/27 09:14:41;;;;;;;1.70;1.60;;;24.20;71.60;;;;;;5068790;28;20390;-71
2021/06/27 09:17:14;;;;;;;1.67;1.38;;;24.20;71.60;;;;;;5073347;28;20076;-71
2021/06/27 09:19:55;;;;;;;1.60;1.50;;;24.30;71.70;;;;;;5072021;28;20031;-71
2021/06/27 09:22:41;;;;;;;1.63;1.52;;;24.30;71.50;;;;;;5065436;28;20393;-70
2021/06/27 09:25:36;;;;;;;1.63;1.48;;;24.40;71.50;;;;;;5073826;28;20108;-71
2021/06/27 09:28:08;;;;;;;1.52;1.40;;;24.50;71.30;;;;;;5020406;28;20053;-70
2021/06/27 09:30:54;;;;;;;1.92;1.45;;;24.60;71.10;;;;;;5023822;28;20103;-71
2021/06/27 09:33:23;;;;;;;1.52;1.33;;;24.60;70.90;;;;;;5073806;28;20481;-70
2021/06/27 09:35:55;;;;;;;1.80;1.70;;;24.70;70.90;;;;;;5073989;28;20032;-70
2021/06/27 09:38:44;;;;;;;2.58;1.73;;;24.90;70.80;;;;;;5066783;28;20134;-70
2021/06/27 09:41:23;;;;;;;1.70;1.40;;;25.00;70.60;;;;;;5057188;28;20035;-69
2021/06/27 09:43:57;;;;;;;2.13;1.40;;;25.10;70.50;;;;;;5065838;28;20070;-70
2021/06/27 09:46:38;;;;;;;1.13;1.05;;;25.20;70.50;;;;;;5053109;28;20090;-70
2021/06/27 09:49:08;;;;;;;1.45;1.23;;;25.40;70.40;;;;;;5054374;28;20031;-70
2021/06/27 09:51:35;;;;;;;2.03;1.70;;;25.40;70.30;;;;;;5053203;28;20040;-70
2021/06/27 09:54:01;;;;;;;1.52;1.40;;;25.50;70.10;;;;;;5053463;28;20104;-70
2021/06/27 09:56:27;;;;;;;1.83;1.20;;;25.50;70.20;;;;;;5053784;28;20063;-70
2021/06/27 09:59:05;;;;;;;1.58;1.48;;;25.60;70.20;;;;;;5053015;28;20051;-70
2021/06/27 10:01:32;;;;;;;1.40;1.30;;;25.70;70.00;;;;;;5065371;28;20037;-69
2021/06/27 10:04:01;;;;;;;1.45;1.20;;;25.70;70.00;;;;;;5073086;28;20021;-69
2021/06/27 10:06:49;;;;;;;2.10;1.70;;;25.70;70.00;;;;;;5072908;28;20362;-70
2021/06/27 10:09:21;;;;;;;1.40;1.10;;;25.70;70.00;;;;;;5043205;28;20090;-70
2021/06/27 10:12:08;;;;;;;2.03;1.83;;;25.70;70.20;;;;;;5032914;28;20256;-70
2021/06/27 10:14:55;;;;;;;1.85;1.70;;;25.70;70.10;;;;;;5032672;28;20073;-70
2021/06/27 10:17:23;;;;;;;1.70;1.60;;;25.80;70.10;;;;;;5032908;28;20064;-70
2021/06/27 10:19:49;;;;;;;2.03;1.48;;;25.90;69.90;;;;;;5072317;28;20512;-70
2021/06/27 10:22:16;;;;;;;1.60;1.50;;;25.80;69.80;;;;;;5072820;28;20039;-70
2021/06/27 10:24:41;;;;;;;1.13;1.05;;;25.90;69.70;;;;;;5065454;28;20030;-70
2021/06/27 10:27:08;;;;;;;1.00;1.00;;;25.80;69.60;;;;;;5052173;28;20033;-70
2021/06/27 10:29:39;;;;;;;1.48;1.38;;;25.80;69.60;;;;;;5052712;28;20411;-70
2021/06/27 10:32:06;;;;;;;1.70;1.25;;;25.90;69.50;;;;;;5052911;28;20028;-70
2021/06/27 10:34:32;;;;;;;1.25;1.15;;;26.00;69.60;;;;;;5059044;28;20020;-70
2021/06/27 10:37:15;;;;;;;1.75;1.60;;;26.10;69.50;;;;;;5053730;28;20482;-70
2021/06/27 10:40:00;;;;;;;2.20;1.92;;;26.10;69.10;;;;;;5054774;28;20071;-70
2021/06/27 10:42:47;;;;;;;1.80;1.70;;;26.00;69.00;;;;;;5061014;28;20400;-70
2021/06/27 10:45:13;;;;;;;1.58;1.48;;;25.90;69.20;;;;;;5076435;28;20028;-70
2021/06/27 10:47:38;;;;;;;1.13;1.10;;;25.90;69.30;;;;;;5076637;28;20016;-70
2021/06/27 10:50:08;;;;;;;1.55;1.45;;;26.00;69.30;;;;;;5071648;28;20032;-70
2021/06/27 10:52:53;;;;;;;1.45;1.25;;;26.00;69.00;;;;;;5056720;28;20017;-70
2021/06/27 10:55:20;;;;;;;1.40;1.30;;;26.10;69.30;;;;;;5046242;28;20033;-70
2021/06/27 10:57:57;;;;;;;1.20;1.10;;;26.10;68.90;;;;;;5057144;28;20029;-70
2021/06/27 11:00:25;;;;;;;1.48;1.38;;;26.20;68.80;;;;;;5056512;28;20021;-70
2021/06/27 11:02:50;;;;;;;1.25;1.15;;;26.40;68.70;;;;;;5062829;28;20033;-70
2021/06/27 11:05:28;;;;;;;1.55;1.45;;;26.40;68.50;;;;;;5057877;28;20374;-70
2021/06/27 11:07:55;;;;;;;1.40;1.10;;;26.50;68.30;;;;;;5056603;28;20025;-70
2021/06/27 11:10:21;;;;;;;1.33;1.20;;;26.50;68.30;;;;;;5056382;28;20049;-70
2021/06/27 11:13:01;;;;;;;1.80;1.70;;;26.50;68.20;;;;;;5061212;28;20447;-70
2021/06/27 11:15:33;;;;;;;1.45;1.20;;;26.70;68.20;;;;;;5076435;28;20492;-70
2021/06/27 11:18:05;;;;;;;1.02;1.02;;;26.80;67.90;;;;;;5076209;28;20035;-70
2021/06/27 11:20:55;;;;;;;1.70;1.60;;;27.10;67.70;;;;;;5076079;28;20035;-70
2021/06/27 11:23:47;;;;;;;1.30;1.20;;;27.30;67.30;;;;;;5065226;28;20112;-70
2021/06/27 11:26:38;;;;;;;2.25;1.45;;;27.60;67.10;;;;;;5048712;28;20033;-70
2021/06/27 11:29:23;;;;;;;1.50;1.40;;;27.90;66.50;;;;;;5055524;28;20289;-70
2021/06/27 11:31:50;;;;;;;1.05;0.98;;;28.40;66.10;;;;;;5055835;28;20036;-70
2021/06/27 11:34:27;;;;;;;1.35;1.15;;;28.80;65.40;;;;;;5069449;28;20055;-70
2021/06/27 11:37:13;;;;;;;1.27;1.15;;;29.10;65.00;;;;;;5075901;28;20020;-70
2021/06/27 11:39:46;;;;;;;1.40;1.30;;;29.10;64.80;;;;;;5075073;28;20029;-70
2021/06/27 11:42:26;;;;;;;1.25;1.15;;;29.20;64.90;;;;;;5074802;28;20029;-70
2021/06/27 11:47:38;;;;;;;1.15;1.10;;;29.50;64.70;;;;;;5056018;28;20449;-71
2021/06/27 11:50:20;;;;;;;1.45;1.10;;;29.70;64.40;;;;;;5055242;28;20057;-71
2021/06/27 11:52:54;;;;;;;1.20;1.10;;;30.00;64.00;;;;;;5059491;28;20096;-70
2021/06/27 11:55:37;;;;;;;1.50;1.40;;;30.00;63.80;;;;;;5075047;28;20107;-70
2021/06/27 11:58:04;;;;;;;0.98;0.98;;;30.00;64.00;;;;;;5049477;28;20040;-70
2021/06/27 12:00:39;;;;;;;1.35;1.25;;;29.90;63.90;;;;;;5057410;28;20041;-70
2021/06/27 12:03:14;;;;;;;1.27;1.17;;;30.00;64.00;;;;;;5068824;28;20060;-70
2021/06/27 12:05:39;;;;;;;1.20;1.10;;;30.20;63.70;;;;;;5037558;28;20108;-70
2021/06/27 12:08:08;;;;;;;1.38;1.27;;;30.50;63.40;;;;;;5037662;28;20060;-70
2021/06/27 12:10:36;;;;;;;1.05;1.00;;;30.80;62.70;;;;;;5065041;28;20116;-70
2021/06/27 12:13:07;;;;;;;1.33;1.23;;;31.20;62.10;;;;;;5075000;28;20048;-70
2021/06/27 12:15:34;;;;;;;1.40;1.30;;;31.50;61.60;;;;;;5066214;28;20061;-69
2021/06/27 12:18:09;;;;;;;1.23;1.13;;;31.70;61.30;;;;;;5060721;28;20523;-70
2021/06/27 12:20:56;;;;;;;1.90;1.40;;;31.90;61.10;;;;;;5055221;28;20033;-70
2021/06/27 12:23:42;;;;;;;1.40;1.30;;;31.90;60.80;;;;;;5037083;28;20059;-70
2021/06/27 12:26:11;;;;;;;1.40;1.30;;;31.90;61.10;;;;;;5055313;28;20029;-70
2021/06/27 12:28:47;;;;;;;1.45;1.35;;;31.90;61.10;;;;;;5062637;28;20551;-70
2021/06/27 12:31:18;;;;;;;1.33;1.23;;;32.10;60.90;;;;;;5059374;28;20029;-70
2021/06/27 12:33:46;;;;;;;1.58;1.48;;;32.20;60.90;;;;;;5054889;28;20450;-69
2021/06/27 12:36:15;;;;;;;1.58;1.48;;;32.30;60.80;;;;;;5040724;28;20013;-70
2021/06/27 12:38:48;;;;;;;1.20;1.20;;;32.50;60.80;;;;;;5054606;28;20047;-70
2021/06/27 12:41:19;;;;;;;1.20;1.10;;;32.70;60.40;;;;;;5054404;28;20029;-70
2021/06/27 12:43:50;;;;;;;0.90;0.90;;;33.00;60.00;;;;;;5054921;28;20025;-70
2021/06/27 12:46:23;;;;;;;1.08;1.02;;;33.20;60.00;;;;;;5054526;28;20057;-70
2021/06/27 12:48:50;;;;;;;1.13;1.08;;;33.40;59.40;;;;;;5054486;28;20021;-70
2021/06/27 12:51:44;;;;;;;2.05;1.50;;;33.30;59.40;;;;;;5036702;28;20025;-70
2021/06/27 12:54:17;;;;;;;1.30;1.20;;;33.00;59.50;;;;;;5059345;28;20410;-70
2021/06/27 12:57:09;;;;;;;1.35;1.08;;;32.80;59.90;;;;;;5057223;28;20394;-70
2021/06/27 12:59:34;;;;;;;1.10;1.10;;;32.90;59.70;;;;;;5060604;28;20546;-70